Time;durP1;ratioP1;P1;durP2;ratioP2;P2;SDS_P1;SDS_P2;PMS_P1;PMS_P2;Temp;Humidity;BMP_temperature;BMP_pressure;BME280_temperature;BME280_humidity;BME280_pressure;Samples;Min_cycle;Max_cycle;Signal;HPM_P1;HPM_P2
2023/05/20 00:00:53;;;;;;;9.23;5.43;;;11.40;99.90;;;;;;5148075;27;20073;-35
2023/05/20 00:03:19;;;;;;;8.48;5.32;;;11.40;99.90;;;;;;5144906;27;20392;-33
2023/05/20 00:05:45;;;;;;;7.53;5.38;;;11.40;99.90;;;;;;5155580;27;20110;-34
2023/05/20 00:08:11;;;;;;;8.82;5.70;;;11.30;99.90;;;;;;5144538;27;20038;-34
2023/05/20 00:10:37;;;;;;;7.97;5.07;;;11.20;99.90;;;;;;5152997;27;20119;-34
2023/05/20 00:13:03;;;;;;;7.10;5.43;;;11.20;99.90;;;;;;5146272;27;20503;-34
2023/05/20 00:15:29;;;;;;;8.68;6.05;;;11.20;99.90;;;;;;5146478;27;20483;-34
2023/05/20 00:17:56;;;;;;;10.15;6.40;;;11.10;99.90;;;;;;5146460;27;20094;-34
2023/05/20 00:20:21;;;;;;;6.35;5.53;;;11.10;99.90;;;;;;5151626;27;20498;-34
2023/05/20 00:22:47;;;;;;;7.53;5.22;;;11.10;99.90;;;;;;5150143;27;20034;-34
2023/05/20 00:25:13;;;;;;;9.20;5.43;;;11.00;99.90;;;;;;5142687;27;20502;-35
2023/05/20 00:27:42;;;;;;;9.70;5.72;;;11.00;99.90;;;;;;5149504;27;20026;-34
2023/05/20 00:30:08;;;;;;;8.05;5.15;;;11.00;99.90;;;;;;5146836;27;20106;-34
2023/05/20 00:32:34;;;;;;;8.80;5.68;;;11.00;99.90;;;;;;5144702;27;20600;-34
2023/05/20 00:35:00;;;;;;;9.35;5.70;;;11.00;99.90;;;;;;5144220;27;20117;-34
2023/05/20 00:37:26;;;;;;;9.38;6.07;;;11.00;99.90;;;;;;5152443;27;20027;-35
2023/05/20 00:39:53;;;;;;;9.65;5.80;;;11.00;99.90;;;;;;5141670;27;20499;-35
2023/05/20 00:42:28;;;;;;;6.32;5.47;;;11.10;99.90;;;;;;5155860;27;20095;-34
2023/05/20 00:44:54;;;;;;;10.02;5.70;;;11.10;99.90;;;;;;5147467;27;20480;-34
2023/05/20 00:47:25;;;;;;;8.80;6.07;;;11.10;99.90;;;;;;5169557;27;20030;-34
2023/05/20 00:49:51;;;;;;;8.07;5.47;;;11.10;99.90;;;;;;5144919;27;20111;-34
2023/05/20 00:52:18;;;;;;;12.13;6.22;;;11.20;99.90;;;;;;5152098;27;20030;-34
2023/05/20 00:54:48;;;;;;;10.98;5.88;;;11.20;99.90;;;;;;5167161;27;20045;-35
2023/05/20 00:57:15;;;;;;;8.85;5.10;;;11.20;99.90;;;;;;5138357;27;20034;-34
2023/05/20 00:59:41;;;;;;;9.45;5.80;;;11.30;99.90;;;;;;5142573;27;20411;-34
2023/05/20 01:02:07;;;;;;;7.30;5.70;;;11.30;99.90;;;;;;5149706;27;20030;-34
2023/05/20 01:04:33;;;;;;;10.52;5.53;;;11.30;99.90;;;;;;5146186;27;20496;-34
2023/05/20 01:07:03;;;;;;;8.77;4.95;;;11.40;99.90;;;;;;5148280;27;20073;-36
2023/05/20 01:09:30;;;;;;;9.18;5.50;;;11.40;99.90;;;;;;5153672;27;20030;-34
2023/05/20 01:12:08;;;;;;;9.30;5.43;;;11.40;99.90;;;;;;5140989;27;20378;-35
2023/05/20 01:14:39;;;;;;;8.70;5.30;;;11.40;99.90;;;;;;5146424;27;20034;-34
2023/05/20 01:17:09;;;;;;;7.22;5.18;;;11.40;99.90;;;;;;5146128;27;20113;-33
2023/05/20 01:19:42;;;;;;;7.43;5.68;;;11.40;99.90;;;;;;5140203;27;20042;-34
2023/05/20 01:22:12;;;;;;;8.05;5.70;;;11.40;99.90;;;;;;5148810;27;20034;-35
2023/05/20 01:24:42;;;;;;;10.63;5.82;;;11.40;99.90;;;;;;5144320;27;20457;-36
2023/05/20 01:27:12;;;;;;;5.90;5.20;;;11.40;99.90;;;;;;5139319;27;20042;-37
2023/05/20 01:29:39;;;;;;;9.55;5.57;;;11.40;99.90;;;;;;5150840;27;20063;-35
2023/05/20 01:32:09;;;;;;;9.48;5.32;;;11.40;99.90;;;;;;5149710;27;20074;-39
2023/05/20 01:34:37;;;;;;;9.93;5.85;;;11.40;99.90;;;;;;5138273;27;20057;-37
2023/05/20 01:37:04;;;;;;;7.70;5.40;;;11.40;99.90;;;;;;5151077;27;20030;-37
2023/05/20 01:39:32;;;;;;;12.00;5.93;;;11.40;99.90;;;;;;5142647;27;20070;-36
2023/05/20 01:42:00;;;;;;;8.27;5.63;;;11.40;99.90;;;;;;5138286;27;20070;-37
2023/05/20 01:44:27;;;;;;;10.25;5.78;;;11.40;99.90;;;;;;5145814;27;20550;-35
2023/05/20 01:46:53;;;;;;;11.18;5.85;;;11.40;99.90;;;;;;5145713;27;20036;-38
2023/05/20 01:49:18;;;;;;;8.88;5.47;;;11.40;99.90;;;;;;5144665;27;20121;-36
2023/05/20 01:51:44;;;;;;;7.05;4.75;;;11.40;99.90;;;;;;5137578;27;20559;-36
2023/05/20 01:54:10;;;;;;;9.27;5.22;;;11.40;99.90;;;;;;5145607;27;20030;-35
2023/05/20 01:56:36;;;;;;;7.88;5.47;;;11.50;99.90;;;;;;5139975;27;20108;-36
2023/05/20 01:59:01;;;;;;;7.35;4.85;;;11.50;99.90;;;;;;5145760;27;20042;-35
2023/05/20 02:01:27;;;;;;;6.63;5.20;;;11.50;99.90;;;;;;5140061;27;20034;-36
2023/05/20 02:03:56;;;;;;;7.88;5.50;;;11.50;99.90;;;;;;5144278;27;20027;-35
2023/05/20 02:06:21;;;;;;;9.00;5.50;;;11.50;99.90;;;;;;5137216;27;20461;-36
2023/05/20 02:08:47;;;;;;;12.05;5.38;;;11.50;99.90;;;;;;5137277;27;20038;-37
2023/05/20 02:11:13;;;;;;;9.13;5.75;;;11.50;99.90;;;;;;5143224;27;20045;-36
2023/05/20 02:13:39;;;;;;;6.70;4.75;;;11.50;99.90;;;;;;5148136;27;20511;-35
2023/05/20 02:16:05;;;;;;;6.25;4.70;;;11.50;99.90;;;;;;5139842;27;20494;-38
2023/05/20 02:18:31;;;;;;;7.07;4.60;;;11.50;99.90;;;;;;5162497;27;20034;-37
2023/05/20 02:21:02;;;;;;;6.13;5.22;;;11.50;99.90;;;;;;5141172;27;21349;-35
2023/05/20 02:23:29;;;;;;;6.45;5.03;;;11.50;99.90;;;;;;5143445;27;20037;-36
2023/05/20 02:25:55;;;;;;;7.50;4.57;;;11.50;99.90;;;;;;5153672;27;20042;-37
2023/05/20 02:28:20;;;;;;;6.20;4.80;;;11.60;99.90;;;;;;5143452;27;20419;-36
2023/05/20 02:30:46;;;;;;;7.43;4.82;;;11.50;99.90;;;;;;5154555;27;20396;-38
2023/05/20 02:33:12;;;;;;;8.40;4.75;;;11.50;99.90;;;;;;5140660;27;20034;-36
2023/05/20 02:35:38;;;;;;;5.93;4.90;;;11.50;99.90;;;;;;5149567;27;20034;-36
2023/05/20 02:38:05;;;;;;;9.45;4.97;;;11.50;99.90;;;;;;5139850;27;20399;-36
2023/05/20 02:40:30;;;;;;;6.90;4.72;;;11.50;99.90;;;;;;5141279;27;20034;-39
2023/05/20 02:42:57;;;;;;;6.85;4.78;;;11.50;99.90;;;;;;5153877;27;20030;-36
2023/05/20 02:45:23;;;;;;;10.90;5.43;;;11.50;99.90;;;;;;5144495;27;20034;-37
2023/05/20 02:47:49;;;;;;;6.68;4.30;;;11.50;99.90;;;;;;5140474;27;20071;-38
2023/05/20 02:50:15;;;;;;;7.20;4.53;;;11.50;99.90;;;;;;5130663;27;20037;-38
2023/05/20 02:52:41;;;;;;;9.00;4.95;;;11.50;99.90;;;;;;5141949;27;20074;-35
2023/05/20 02:55:08;;;;;;;7.40;4.68;;;11.50;99.90;;;;;;5140971;27;20411;-35
2023/05/20 02:57:36;;;;;;;7.05;4.78;;;11.40;99.90;;;;;;5143863;27;20039;-36
2023/05/20 03:00:06;;;;;;;5.72;4.40;;;11.40;99.90;;;;;;5143121;27;20035;-36
2023/05/20 03:02:33;;;;;;;7.53;4.15;;;11.40;99.90;;;;;;5145624;27;20078;-36
2023/05/20 03:04:59;;;;;;;9.50;4.85;;;11.40;99.90;;;;;;5147580;27;20113;-37
2023/05/20 03:07:25;;;;;;;7.72;4.68;;;11.40;99.90;;;;;;5142692;27;20110;-38
2023/05/20 03:09:51;;;;;;;6.05;3.95;;;11.40;99.90;;;;;;5138175;27;20571;-36
2023/05/20 03:12:16;;;;;;;7.32;5.30;;;11.40;99.90;;;;;;5146398;27;20037;-36
2023/05/20 03:14:42;;;;;;;7.72;4.63;;;11.40;99.90;;;;;;5137148;27;20046;-36
2023/05/20 03:17:08;;;;;;;5.72;4.38;;;11.30;99.90;;;;;;5148721;27;20035;-36
2023/05/20 03:19:34;;;;;;;6.03;4.20;;;11.30;99.90;;;;;;5140470;27;20116;-36
2023/05/20 03:22:00;;;;;;;7.43;5.07;;;11.20;99.90;;;;;;5149029;27;20113;-36
2023/05/20 03:24:27;;;;;;;6.10;4.53;;;11.20;99.90;;;;;;5149390;27;20261;-37
2023/05/20 03:26:53;;;;;;;5.53;4.38;;;11.20;99.90;;;;;;5174426;27;20403;-39
2023/05/20 03:29:18;;;;;;;6.60;4.38;;;11.10;99.90;;;;;;5148295;27;20053;-39
2023/05/20 03:31:45;;;;;;;5.60;4.63;;;11.00;99.90;;;;;;5154153;27;20053;-39
2023/05/20 03:34:10;;;;;;;6.68;4.90;;;11.00;99.90;;;;;;5153079;27;20471;-36
2023/05/20 03:36:36;;;;;;;6.65;4.40;;;10.90;99.90;;;;;;5147756;27;20034;-39
2023/05/20 03:39:03;;;;;;;8.48;4.85;;;10.90;99.90;;;;;;5131860;27;20031;-36
2023/05/20 03:41:29;;;;;;;7.20;4.63;;;10.90;99.90;;;;;;5145867;27;20464;-39
2023/05/20 03:43:55;;;;;;;6.95;4.20;;;10.90;99.90;;;;;;5149054;27;20038;-39
2023/05/20 03:46:20;;;;;;;6.60;4.07;;;10.90;99.90;;;;;;5152756;27;20038;-35
2023/05/20 03:48:46;;;;;;;6.97;4.45;;;11.00;99.90;;;;;;5144728;27;20045;-36
2023/05/20 03:51:12;;;;;;;6.47;4.53;;;11.00;99.90;;;;;;5149664;27;20034;-36
2023/05/20 03:53:37;;;;;;;5.78;4.05;;;11.00;99.90;;;;;;5152136;27;20065;-36
2023/05/20 03:56:03;;;;;;;5.78;4.45;;;11.00;99.90;;;;;;5156743;27;20042;-35
2023/05/20 03:58:30;;;;;;;6.47;4.53;;;11.00;99.90;;;;;;5145981;27;20035;-38
2023/05/20 04:00:56;;;;;;;7.18;4.38;;;11.00;99.90;;;;;;5142214;27;20034;-35
2023/05/20 04:03:22;;;;;;;9.75;4.88;;;10.90;99.90;;;;;;5154550;27;20033;-38
2023/05/20 04:05:48;;;;;;;6.53;4.40;;;10.90;99.90;;;;;;5154546;27;20126;-35
2023/05/20 04:08:14;;;;;;;7.60;4.65;;;10.80;99.90;;;;;;5150225;27;20039;-37
2023/05/20 04:10:41;;;;;;;5.93;3.88;;;10.80;99.90;;;;;;5143734;27;20121;-35
2023/05/20 04:13:07;;;;;;;5.45;3.70;;;10.70;99.90;;;;;;5136622;27;20046;-37
2023/05/20 04:15:37;;;;;;;5.65;3.85;;;10.70;99.90;;;;;;5152389;27;20030;-37
2023/05/20 04:18:04;;;;;;;8.15;4.47;;;10.70;99.90;;;;;;5156598;27;20487;-39
2023/05/20 04:20:31;;;;;;;6.88;4.40;;;10.60;99.90;;;;;;5139284;27;20038;-33
2023/05/20 04:22:56;;;;;;;4.75;3.97;;;10.60;99.90;;;;;;5146453;27;20109;-36
2023/05/20 04:25:22;;;;;;;7.30;4.40;;;10.60;99.90;;;;;;5145253;27;20121;-35
2023/05/20 04:27:49;;;;;;;5.65;4.00;;;10.60;99.90;;;;;;5138065;27;20030;-37
2023/05/20 04:30:18;;;;;;;5.82;3.78;;;10.60;99.90;;;;;;5145595;27;20030;-34
2023/05/20 04:32:44;;;;;;;6.05;3.97;;;10.60;99.90;;;;;;5150086;27;20381;-38
2023/05/20 04:35:13;;;;;;;6.47;4.30;;;10.50;99.90;;;;;;5153430;27;20025;-35
2023/05/20 04:37:40;;;;;;;5.43;3.70;;;10.50;99.90;;;;;;5146536;27;20399;-35
2023/05/20 04:40:08;;;;;;;5.38;3.90;;;10.60;99.90;;;;;;5146016;27;20458;-37
2023/05/20 04:42:34;;;;;;;5.53;3.92;;;10.60;99.90;;;;;;5133504;27;20526;-36
2023/05/20 04:45:00;;;;;;;5.82;4.07;;;10.60;99.90;;;;;;5143095;27;20065;-36
2023/05/20 04:47:29;;;;;;;7.22;3.88;;;10.60;99.90;;;;;;5149576;27;20038;-35
2023/05/20 04:49:56;;;;;;;4.47;3.65;;;10.70;99.90;;;;;;5149746;27;20054;-34
2023/05/20 04:52:23;;;;;;;5.85;3.78;;;10.70;99.90;;;;;;5136218;27;20035;-36
2023/05/20 04:54:49;;;;;;;6.93;3.63;;;10.70;99.90;;;;;;5140471;27;20050;-38
2023/05/20 04:57:16;;;;;;;5.55;3.53;;;10.80;99.90;;;;;;5147426;27;20031;-36
2023/05/20 04:59:44;;;;;;;4.75;3.25;;;10.80;99.90;;;;;;5146156;27;20065;-35
2023/05/20 05:02:10;;;;;;;5.85;3.58;;;10.80;99.90;;;;;;5142648;27;20035;-36
2023/05/20 05:04:36;;;;;;;5.22;3.50;;;10.90;99.90;;;;;;5142127;27;20034;-37
2023/05/20 05:07:01;;;;;;;6.40;3.08;;;10.90;99.90;;;;;;5143687;27;20109;-34
2023/05/20 05:09:30;;;;;;;3.33;2.97;;;11.00;99.90;;;;;;5151966;27;20042;-38
2023/05/20 05:11:56;;;;;;;3.58;3.28;;;11.00;99.90;;;;;;5136127;27;20043;-36
2023/05/20 05:14:22;;;;;;;4.03;3.33;;;11.10;99.90;;;;;;5152192;27;20094;-37
2023/05/20 05:16:48;;;;;;;4.55;3.05;;;11.10;99.90;;;;;;5142885;27;20440;-37
2023/05/20 05:19:14;;;;;;;5.40;3.30;;;11.10;99.90;;;;;;5147487;27;20038;-35
2023/05/20 05:21:40;;;;;;;3.47;3.17;;;11.20;99.90;;;;;;5147793;27;20159;-36
2023/05/20 05:24:06;;;;;;;5.32;3.13;;;11.20;99.90;;;;;;5149746;27;20113;-36
2023/05/20 05:26:32;;;;;;;4.90;2.78;;;11.30;99.90;;;;;;5146705;27;20041;-36
2023/05/20 05:28:58;;;;;;;5.50;2.97;;;11.40;99.90;;;;;;5152805;27;20042;-35
2023/05/20 05:31:24;;;;;;;4.80;3.65;;;11.40;99.90;;;;;;5152096;27;20578;-35
2023/05/20 05:33:50;;;;;;;5.00;2.63;;;11.50;99.90;;;;;;5146833;27;20048;-35
2023/05/20 05:36:16;;;;;;;3.95;2.88;;;11.50;99.90;;;;;;5153605;27;20429;-36
2023/05/20 05:38:43;;;;;;;5.00;2.78;;;11.60;99.90;;;;;;5153461;27;20034;-38
2023/05/20 05:41:09;;;;;;;2.80;2.60;;;11.70;99.90;;;;;;5152980;27;20066;-36
2023/05/20 05:43:35;;;;;;;4.30;2.40;;;11.70;99.90;;;;;;5148153;27;20068;-37
2023/05/20 05:46:03;;;;;;;3.15;2.65;;;11.80;99.90;;;;;;5150167;27;20040;-39
2023/05/20 05:48:29;;;;;;;4.18;2.40;;;11.90;99.90;;;;;;5144577;27;20042;-36
2023/05/20 05:50:55;;;;;;;4.05;2.38;;;11.90;99.90;;;;;;5147474;27;20091;-37
2023/05/20 05:53:21;;;;;;;2.97;2.67;;;12.00;99.90;;;;;;5146180;27;20556;-34
2023/05/20 05:55:47;;;;;;;5.50;2.90;;;12.00;99.90;;;;;;5139766;27;20675;-37
2023/05/20 05:58:12;;;;;;;3.92;2.60;;;12.20;99.90;;;;;;5146272;27;20046;-38
2023/05/20 06:00:38;;;;;;;4.18;2.40;;;12.20;99.90;;;;;;5165044;27;20495;-35
2023/05/20 06:03:04;;;;;;;3.58;2.50;;;12.40;99.90;;;;;;5149694;27;20030;-39
2023/05/20 06:05:30;;;;;;;4.13;2.58;;;12.40;99.90;;;;;;5153248;27;20059;-37
2023/05/20 06:07:56;;;;;;;2.53;2.22;;;12.50;99.90;;;;;;5145962;27;20050;-36
2023/05/20 06:10:22;;;;;;;3.10;2.45;;;12.60;99.90;;;;;;5148412;27;20038;-38
2023/05/20 06:12:48;;;;;;;4.65;2.30;;;12.70;99.90;;;;;;5153540;27;20048;-36
2023/05/20 06:15:14;;;;;;;2.50;2.30;;;12.80;99.90;;;;;;5147573;27;20093;-38
2023/05/20 06:17:39;;;;;;;3.22;2.50;;;12.90;99.90;;;;;;5143359;27;20392;-37
2023/05/20 06:20:06;;;;;;;4.32;2.25;;;12.90;99.90;;;;;;5154414;27;20068;-36
2023/05/20 06:22:32;;;;;;;2.33;2.13;;;13.00;99.90;;;;;;5158304;27;20055;-35
2023/05/20 06:24:59;;;;;;;4.57;2.58;;;13.00;99.90;;;;;;5150254;27;20030;-37
2023/05/20 06:27:26;;;;;;;3.22;2.30;;;13.10;99.90;;;;;;5143146;27;20428;-36
2023/05/20 06:29:52;;;;;;;2.50;2.30;;;13.20;99.90;;;;;;5152774;27;20038;-36
2023/05/20 06:32:18;;;;;;;2.58;2.13;;;13.20;99.90;;;;;;5142278;27;20178;-36
2023/05/20 06:34:44;;;;;;;4.38;2.40;;;13.30;99.90;;;;;;5151146;27;20046;-34
2023/05/20 06:37:10;;;;;;;2.55;2.35;;;13.30;99.90;;;;;;5153453;27;20119;-34
2023/05/20 06:39:36;;;;;;;4.07;2.40;;;13.40;99.90;;;;;;5147505;27;20372;-36
2023/05/20 06:42:02;;;;;;;4.85;2.65;;;13.50;99.90;;;;;;5145781;27;20083;-35
2023/05/20 06:44:29;;;;;;;4.47;2.72;;;13.60;99.90;;;;;;5146002;27;20034;-38
2023/05/20 06:46:55;;;;;;;3.70;2.50;;;13.60;99.90;;;;;;5151898;27;20497;-40
2023/05/20 06:49:21;;;;;;;3.15;2.20;;;13.70;99.90;;;;;;5154952;27;20120;-38
2023/05/20 06:51:47;;;;;;;4.65;2.70;;;13.70;99.90;;;;;;5142419;27;20540;-37
2023/05/20 06:54:13;;;;;;;3.15;2.30;;;13.80;99.90;;;;;;5152030;27;20035;-39
2023/05/20 06:56:38;;;;;;;3.00;2.63;;;13.90;99.90;;;;;;5145920;27;20045;-37
2023/05/20 06:59:04;;;;;;;2.63;2.40;;;14.10;99.90;;;;;;5139660;27;20030;-35
2023/05/20 07:01:30;;;;;;;3.47;2.70;;;14.20;99.90;;;;;;5153150;27;20113;-35
2023/05/20 07:03:56;;;;;;;4.30;2.55;;;14.20;99.90;;;;;;5150023;27;20030;-36
2023/05/20 07:06:22;;;;;;;3.88;2.53;;;14.30;99.90;;;;;;5138252;27;20034;-38
2023/05/20 07:08:48;;;;;;;4.78;3.00;;;14.40;99.90;;;;;;5150664;27;20039;-35
2023/05/20 07:11:13;;;;;;;4.05;2.60;;;14.60;99.90;;;;;;5147226;27;20041;-38
2023/05/20 07:13:39;;;;;;;3.83;2.63;;;14.70;99.90;;;;;;5147556;27;20062;-39
2023/05/20 07:16:05;;;;;;;4.25;2.40;;;14.90;99.90;;;;;;5149260;27;20387;-37
2023/05/20 07:18:31;;;;;;;3.55;2.55;;;15.10;99.90;;;;;;5149873;27;20037;-37
2023/05/20 07:20:57;;;;;;;4.30;3.22;;;15.30;99.90;;;;;;5151571;27;20030;-36
2023/05/20 07:23:23;;;;;;;5.97;3.00;;;15.40;99.90;;;;;;5147173;27;20045;-34
2023/05/20 07:25:48;;;;;;;2.90;2.60;;;15.60;99.90;;;;;;5150991;27;20031;-35
2023/05/20 07:28:16;;;;;;;3.97;2.60;;;15.80;99.90;;;;;;5151725;27;20034;-40
2023/05/20 07:30:41;;;;;;;2.85;2.50;;;15.90;99.90;;;;;;5150715;27;20045;-36
2023/05/20 07:33:07;;;;;;;3.08;2.85;;;16.10;99.90;;;;;;5148409;27;20551;-38
2023/05/20 07:35:33;;;;;;;4.53;3.45;;;16.30;99.90;;;;;;5153797;27;20086;-39
2023/05/20 07:37:58;;;;;;;2.95;2.65;;;16.40;99.90;;;;;;5140867;27;20125;-36
2023/05/20 07:40:24;;;;;;;5.72;3.28;;;16.50;99.90;;;;;;5152831;27;20060;-37
2023/05/20 07:42:50;;;;;;;4.18;3.17;;;16.60;99.90;;;;;;5145545;27;20029;-38
2023/05/20 07:45:16;;;;;;;3.92;2.80;;;16.80;99.90;;;;;;5158704;27;20023;-35
2023/05/20 07:47:41;;;;;;;4.63;2.85;;;17.00;99.90;;;;;;5143420;27;20095;-35
2023/05/20 07:50:07;;;;;;;3.65;3.22;;;17.20;99.90;;;;;;5140758;27;20055;-36
2023/05/20 07:52:33;;;;;;;4.68;3.33;;;17.30;99.90;;;;;;5147512;27;20476;-37
2023/05/20 07:54:59;;;;;;;3.33;3.03;;;17.30;99.90;;;;;;5145430;27;20045;-38
2023/05/20 07:57:25;;;;;;;3.50;2.92;;;17.50;99.90;;;;;;5145892;27;20479;-36
2023/05/20 07:59:50;;;;;;;3.60;3.30;;;17.60;99.90;;;;;;5149993;27;20038;-36
2023/05/20 08:02:16;;;;;;;4.88;2.85;;;17.70;99.90;;;;;;5144426;27;20079;-37
2023/05/20 08:04:42;;;;;;;4.18;3.20;;;17.80;99.90;;;;;;5141376;27;20095;-38
2023/05/20 08:07:08;;;;;;;4.40;3.10;;;18.00;99.90;;;;;;5138235;27;20076;-38
2023/05/20 08:09:33;;;;;;;3.95;3.00;;;18.10;99.90;;;;;;5145357;27;20046;-36
2023/05/20 08:11:59;;;;;;;4.28;2.88;;;18.30;99.90;;;;;;5145826;27;20042;-37
2023/05/20 08:14:25;;;;;;;5.30;3.08;;;18.40;99.90;;;;;;5144914;27;20053;-39
2023/05/20 08:16:50;;;;;;;3.00;2.75;;;18.60;99.90;;;;;;5147357;27;20480;-37
2023/05/20 08:19:16;;;;;;;3.38;2.90;;;18.80;99.90;;;;;;5142483;27;20030;-37
2023/05/20 08:21:42;;;;;;;3.38;2.85;;;19.00;99.90;;;;;;5140015;27;20500;-40
2023/05/20 08:24:08;;;;;;;3.72;2.92;;;19.10;98.90;;;;;;5146921;27;20117;-36
2023/05/20 08:26:33;;;;;;;4.43;2.90;;;19.20;96.00;;;;;;5143965;27;20031;-37
2023/05/20 08:29:02;;;;;;;4.38;3.25;;;19.20;94.80;;;;;;5149334;27;20039;-38
2023/05/20 08:31:28;;;;;;;3.20;2.90;;;19.30;94.80;;;;;;5152724;27;20038;-36
2023/05/20 08:33:53;;;;;;;4.40;2.78;;;19.30;92.80;;;;;;5144667;27;20553;-38
2023/05/20 08:36:19;;;;;;;4.68;2.70;;;19.20;92.00;;;;;;5148575;27;20034;-36
2023/05/20 08:38:45;;;;;;;3.95;2.80;;;19.30;92.10;;;;;;5148914;27;20042;-36
2023/05/20 08:41:11;;;;;;;3.45;2.45;;;19.40;91.20;;;;;;5151675;27;20066;-36
2023/05/20 08:43:36;;;;;;;3.03;2.80;;;19.60;90.30;;;;;;5147351;27;20036;-36
2023/05/20 08:46:05;;;;;;;3.10;2.60;;;19.70;89.30;;;;;;5143716;27;20491;-39
2023/05/20 08:48:32;;;;;;;3.60;2.75;;;19.70;85.80;;;;;;5154658;27;20047;-37
2023/05/20 08:51:00;;;;;;;4.15;2.60;;;19.70;85.30;;;;;;5153048;27;20495;-37
2023/05/20 08:53:25;;;;;;;3.55;2.50;;;19.80;82.80;;;;;;5146297;27;20475;-36
2023/05/20 08:55:59;;;;;;;3.35;2.30;;;19.80;82.70;;;;;;5151263;27;20118;-38
2023/05/20 08:58:24;;;;;;;5.90;3.00;;;20.00;81.20;;;;;;5149960;27;20034;-39
2023/05/20 09:00:51;;;;;;;5.43;2.60;;;20.10;78.70;;;;;;5146775;27;20045;-36
2023/05/20 09:03:19;;;;;;;3.78;2.75;;;20.10;76.30;;;;;;5150013;27;20453;-38
2023/05/20 09:05:46;;;;;;;2.55;2.25;;;20.40;76.30;;;;;;5149461;27;20054;-36
2023/05/20 09:08:12;;;;;;;3.05;2.75;;;20.60;76.00;;;;;;5140826;27;20045;-35
2023/05/20 09:10:40;;;;;;;11.02;3.17;;;20.80;75.10;;;;;;5142058;27;20034;-36
2023/05/20 09:13:06;;;;;;;3.72;2.50;;;21.00;74.60;;;;;;5144408;27;20040;-36
2023/05/20 09:15:36;;;;;;;5.25;2.92;;;21.00;74.10;;;;;;5146402;27;20159;-38
2023/05/20 09:18:04;;;;;;;4.05;2.40;;;21.00;71.10;;;;;;5137493;27;20039;-33
2023/05/20 09:20:33;;;;;;;6.30;2.75;;;21.10;71.50;;;;;;5143024;27;20030;-35
2023/05/20 09:23:03;;;;;;;2.72;2.40;;;21.20;69.40;;;;;;5136723;27;20039;-33
2023/05/20 09:25:29;;;;;;;2.92;2.42;;;21.20;66.90;;;;;;5136565;27;20035;-33
2023/05/20 09:27:55;;;;;;;3.33;2.17;;;21.50;68.80;;;;;;5165492;27;20026;-34
2023/05/20 09:30:22;;;;;;;3.83;2.72;;;21.70;69.00;;;;;;5135441;27;20052;-34
2023/05/20 09:32:58;;;;;;;3.10;2.28;;;21.70;68.10;;;;;;5135713;27;20114;-34
2023/05/20 09:35:26;;;;;;;6.15;2.45;;;21.90;64.40;;;;;;5156081;27;20030;-34
2023/05/20 09:37:54;;;;;;;3.50;2.53;;;21.90;65.60;;;;;;5147944;27;20036;-33
2023/05/20 09:40:27;;;;;;;3.78;2.50;;;22.00;63.80;;;;;;5146395;27;20391;-33
2023/05/20 09:42:58;;;;;;;2.63;2.10;;;22.00;62.20;;;;;;5150877;27;20039;-35
2023/05/20 09:45:24;;;;;;;5.80;2.30;;;22.10;63.10;;;;;;5146825;27;20039;-33
2023/05/20 09:47:51;;;;;;;4.00;2.42;;;21.70;63.20;;;;;;5149128;27;20046;-34
2023/05/20 09:50:22;;;;;;;3.33;1.98;;;21.80;62.60;;;;;;5156041;27;20094;-33
2023/05/20 09:52:49;;;;;;;2.92;2.25;;;22.00;62.00;;;;;;5143039;27;20071;-34
2023/05/20 09:55:18;;;;;;;2.60;2.15;;;22.20;62.50;;;;;;5149331;27;20037;-33
2023/05/20 09:57:45;;;;;;;2.55;2.35;;;22.00;59.60;;;;;;5164458;27;20570;-37
2023/05/20 10:00:14;;;;;;;3.10;2.47;;;22.00;60.00;;;;;;5148972;27;20086;-40
2023/05/20 10:02:45;;;;;;;4.43;2.17;;;22.00;59.40;;;;;;5147679;27;20034;-40
2023/05/20 10:05:38;;;;;;;3.15;2.25;;;22.30;61.30;;;;;;5148506;27;20030;-36
2023/05/20 10:08:32;;;;;;;2.67;2.17;;;22.10;59.10;;;;;;5131101;27;20074;-39
2023/05/20 10:11:14;;;;;;;5.13;2.38;;;22.30;60.00;;;;;;5143525;27;20042;-36
2023/05/20 10:13:55;;;;;;;3.85;2.35;;;22.40;58.70;;;;;;5154233;27;20036;-37
2023/05/20 10:16:50;;;;;;;3.83;2.50;;;22.10;56.10;;;;;;5145407;27;20038;-39
2023/05/20 10:19:29;;;;;;;4.05;2.22;;;21.50;55.80;;;;;;5148623;27;20045;-36
2023/05/20 10:22:01;;;;;;;3.08;2.50;;;21.10;58.20;;;;;;5148242;27;20454;-38
2023/05/20 10:24:31;;;;;;;2.58;2.28;;;21.20;58.90;;;;;;5139571;27;20031;-38
2023/05/20 10:26:59;;;;;;;5.32;2.38;;;21.60;59.70;;;;;;5139978;27;20031;-37
2023/05/20 10:29:25;;;;;;;2.67;2.10;;;21.80;60.30;;;;;;5150408;27;20065;-35
2023/05/20 10:31:51;;;;;;;3.50;1.90;;;21.70;59.40;;;;;;5149131;27;20043;-35
2023/05/20 10:34:19;;;;;;;2.20;1.95;;;21.80;58.30;;;;;;5153164;27;20039;-37
2023/05/20 10:37:05;;;;;;;3.13;2.05;;;21.60;57.00;;;;;;5142700;27;20087;-38
2023/05/20 10:39:34;;;;;;;5.07;1.98;;;21.70;56.40;;;;;;5135572;27;20516;-36
2023/05/20 10:42:10;;;;;;;2.33;1.77;;;21.50;56.80;;;;;;5155681;27;20434;-40
2023/05/20 10:44:46;;;;;;;3.20;2.17;;;21.50;56.10;;;;;;5140517;27;20031;-36
2023/05/20 10:47:12;;;;;;;3.03;1.90;;;21.50;57.10;;;;;;5155523;27;20038;-37
2023/05/20 10:49:46;;;;;;;3.13;2.20;;;21.30;57.20;;;;;;5140477;27;20350;-36
2023/05/20 10:52:20;;;;;;;;;;;21.20;56.10;;;;;;5147905;27;20126;-35
2023/05/20 10:54:57;;;;;;;2.40;2.15;;;20.90;55.60;;;;;;5135048;27;19965;-37
2023/05/20 10:57:26;;;;;;;2.97;2.13;;;21.30;56.80;;;;;;5154162;27;20034;-37
2023/05/20 10:59:51;;;;;;;4.07;2.17;;;21.70;56.60;;;;;;5138471;27;20092;-36
2023/05/20 11:02:19;;;;;;;3.85;2.08;;;22.30;56.00;;;;;;5151987;27;20476;-37
2023/05/20 11:04:46;;;;;;;4.13;1.90;;;23.10;56.80;;;;;;5138447;27;20499;-37
2023/05/20 11:07:12;;;;;;;2.10;1.85;;;23.60;55.40;;;;;;5152487;27;20030;-37
2023/05/20 11:09:38;;;;;;;2.38;1.85;;;23.70;54.80;;;;;;5153897;27;20172;-38
2023/05/20 11:12:04;;;;;;;2.80;1.80;;;23.70;54.00;;;;;;5144078;27;20507;-36
2023/05/20 11:14:30;;;;;;;2.17;1.88;;;23.60;53.80;;;;;;5149602;27;20511;-38
2023/05/20 11:16:58;;;;;;;2.22;1.60;;;23.80;54.20;;;;;;5138473;27;20125;-38
2023/05/20 11:19:25;;;;;;;7.60;2.00;;;24.30;54.40;;;;;;5143666;27;20045;-37
2023/05/20 11:21:51;;;;;;;2.70;1.70;;;24.20;52.80;;;;;;5146678;27;20113;-39
2023/05/20 11:24:27;;;;;;;3.13;2.03;;;24.30;53.00;;;;;;5146189;27;20030;-36
2023/05/20 11:26:56;;;;;;;2.60;1.90;;;24.70;49.40;;;;;;5145380;27;20476;-36
2023/05/20 11:29:25;;;;;;;2.35;1.80;;;24.90;51.80;;;;;;5150782;27;20131;-36
2023/05/20 11:31:51;;;;;;;2.95;2.00;;;24.60;51.00;;;;;;5137529;27;20041;-37
2023/05/20 11:34:23;;;;;;;5.53;1.90;;;24.70;50.50;;;;;;5137684;27;20189;-37
2023/05/20 11:36:58;;;;;;;3.47;2.00;;;25.20;49.50;;;;;;5142311;27;20411;-37
2023/05/20 11:39:26;;;;;;;2.22;1.73;;;25.50;48.90;;;;;;5137508;27;20039;-36
2023/05/20 11:41:52;;;;;;;3.03;2.00;;;26.10;50.50;;;;;;5145899;27;20111;-39
2023/05/20 11:44:19;;;;;;;3.17;2.08;;;26.30;50.40;;;;;;5159050;27;20042;-38
2023/05/20 11:46:46;;;;;;;2.45;1.85;;;26.00;47.70;;;;;;5144822;27;20495;-35
2023/05/20 11:49:16;;;;;;;3.65;2.10;;;25.60;47.50;;;;;;5146647;27;20037;-37
2023/05/20 11:51:43;;;;;;;2.90;1.88;;;25.10;46.90;;;;;;5170049;27;20046;-37
2023/05/20 11:54:09;;;;;;;3.25;2.25;;;24.80;47.60;;;;;;5148978;27;20031;-37
2023/05/20 11:56:36;;;;;;;3.25;2.10;;;25.20;48.80;;;;;;5139198;27;20041;-37
2023/05/20 11:59:07;;;;;;;2.00;1.90;;;25.10;48.10;;;;;;5168675;27;20125;-39
2023/05/20 12:01:39;;;;;;;4.85;2.45;;;25.30;47.90;;;;;;5142454;27;20057;-37
2023/05/20 12:04:06;;;;;;;3.80;2.33;;;25.20;48.00;;;;;;5149644;27;20458;-39
2023/05/20 12:06:32;;;;;;;3.72;1.83;;;25.40;48.80;;;;;;5176570;27;20034;-37
2023/05/20 12:09:07;;;;;;;4.53;2.30;;;25.60;48.10;;;;;;5129327;27;20075;-41
2023/05/20 12:11:39;;;;;;;2.20;2.00;;;25.80;46.70;;;;;;5158390;27;20462;-39
2023/05/20 12:14:06;;;;;;;2.50;2.07;;;25.40;46.40;;;;;;5157787;27;20034;-39
2023/05/20 12:16:33;;;;;;;3.65;2.20;;;24.70;46.90;;;;;;5147579;27;20292;-38
2023/05/20 12:18:59;;;;;;;4.22;2.28;;;24.90;47.20;;;;;;5134018;27;20046;-37
2023/05/20 12:21:25;;;;;;;3.90;1.83;;;25.10;46.70;;;;;;5156061;27;20079;-37
2023/05/20 12:23:56;;;;;;;3.55;1.70;;;25.00;46.40;;;;;;5155276;27;20034;-37
2023/05/20 12:26:26;;;;;;;3.58;2.20;;;25.00;47.10;;;;;;5150402;27;20640;-37
2023/05/20 12:28:53;;;;;;;3.35;2.20;;;25.30;46.40;;;;;;5145817;27;20035;-39
2023/05/20 12:31:20;;;;;;;4.00;2.00;;;25.30;46.40;;;;;;5141552;27;20089;-37
2023/05/20 12:33:46;;;;;;;2.70;2.08;;;25.00;46.50;;;;;;5166776;27;20061;-38
2023/05/20 12:36:13;;;;;;;2.88;2.00;;;25.30;47.20;;;;;;5154379;27;20043;-38
2023/05/20 12:38:39;;;;;;;2.42;1.90;;;25.20;46.80;;;;;;5149972;27;20043;-38
2023/05/20 12:41:05;;;;;;;3.45;2.35;;;25.10;46.60;;;;;;5138326;27;20031;-37
2023/05/20 12:43:37;;;;;;;5.22;2.28;;;25.00;47.10;;;;;;5157623;27;20658;-37
2023/05/20 12:46:03;;;;;;;3.65;2.30;;;24.80;46.20;;;;;;5155814;27;20030;-36